createdAt,value
2018-09-09T00:00:38.206Z,0
2018-09-09T00:01:48.327Z,0
2018-09-09T00:02:57.898Z,0
2018-09-09T00:04:07.470Z,0
2018-09-09T00:05:17.633Z,0
2018-09-09T00:06:26.664Z,0
2018-09-09T00:07:36.241Z,0
2018-09-09T00:08:46.111Z,0
2018-09-09T00:09:55.120Z,0
2018-09-09T00:11:04.427Z,0
2018-09-09T00:12:14.272Z,0
2018-09-09T00:13:23.835Z,0
2018-09-09T00:14:33.685Z,0
2018-09-09T00:15:43.304Z,0
2018-09-09T00:16:53.151Z,0
2018-09-09T00:18:02.719Z,0
2018-09-09T00:19:12.557Z,0
2018-09-09T00:20:21.877Z,0
2018-09-09T00:21:31.990Z,0
2018-09-09T00:22:41.292Z,0
2018-09-09T00:23:50.325Z,0
2018-09-09T00:25:00.162Z,0
2018-09-09T00:26:09.731Z,0
2018-09-09T00:27:19.845Z,0
2018-09-09T00:28:29.414Z,0
2018-09-09T00:29:38.990Z,0
2018-09-09T00:30:48.596Z,0
2018-09-09T00:31:58.707Z,0
2018-09-09T00:33:08.820Z,0
2018-09-09T00:34:18.712Z,0
2018-09-09T00:35:28.601Z,0
2018-09-09T00:36:38.455Z,0
2018-09-09T00:37:48.026Z,0
2018-09-09T00:38:57.873Z,0
2018-09-09T00:40:07.771Z,0
2018-09-09T00:41:17.626Z,0
2018-09-09T00:42:27.502Z,0
2018-09-09T00:43:37.656Z,0
2018-09-09T00:44:47.492Z,0
2018-09-09T00:45:57.115Z,0
2018-09-09T00:47:06.415Z,0
2018-09-09T00:48:16.265Z,0
2018-09-09T00:49:26.066Z,0
2018-09-09T00:50:35.366Z,0
2018-09-09T00:51:45.256Z,0
2018-09-09T00:52:55.110Z,0
2018-09-09T00:54:05.220Z,0
2018-09-09T00:55:15.341Z,0
2018-09-09T00:56:25.455Z,0
2018-09-09T00:57:35.297Z,0
2018-09-09T00:58:45.138Z,0
2018-09-09T00:59:55.288Z,0
2018-09-09T01:01:04.864Z,0
2018-09-09T01:02:14.441Z,0
2018-09-09T01:03:23.986Z,0
2018-09-09T01:04:33.314Z,0
2018-09-09T01:05:43.162Z,0
2018-09-09T01:06:52.737Z,0
2018-09-09T01:08:02.305Z,0
2018-09-09T01:09:12.204Z,0
2018-09-09T01:10:21.774Z,0
2018-09-09T01:11:31.894Z,0
2018-09-09T01:12:41.472Z,0
2018-09-09T01:13:51.042Z,0
2018-09-09T01:15:00.884Z,0
2018-09-09T01:16:10.454Z,0
2018-09-09T01:17:20.570Z,0
2018-09-09T01:18:30.416Z,0
2018-09-09T01:19:40.525Z,0
2018-09-09T01:20:50.413Z,0
2018-09-09T01:22:00.260Z,0
2018-09-09T01:23:10.100Z,0
2018-09-09T01:24:19.677Z,0
2018-09-09T01:25:28.955Z,0
2018-09-09T01:26:38.521Z,0
2018-09-09T01:27:48.084Z,0
2018-09-09T01:28:57.951Z,0
2018-09-09T01:30:07.521Z,0
2018-09-09T01:31:17.095Z,0
2018-09-09T01:32:26.665Z,0
2018-09-09T01:33:36.777Z,0
2018-09-09T01:34:46.616Z,0
2018-09-09T01:35:55.926Z,0
2018-09-09T01:37:05.767Z,0
2018-09-09T01:38:15.068Z,0
2018-09-09T01:39:24.911Z,0
2018-09-09T01:40:34.769Z,0
2018-09-09T01:41:44.071Z,0
2018-09-09T01:42:53.655Z,0
2018-09-09T01:44:03.502Z,0
2018-09-09T01:45:13.083Z,0
2018-09-09T01:46:23.206Z,0
2018-09-09T01:47:32.776Z,0
2018-09-09T01:48:42.352Z,0
2018-09-09T01:49:51.680Z,0
2018-09-09T01:51:01.523Z,0
2018-09-09T01:52:10.554Z,0
2018-09-09T01:53:20.392Z,0
2018-09-09T01:54:29.968Z,0
2018-09-09T01:55:39.806Z,0
2018-09-09T01:56:49.383Z,0
2018-09-09T01:57:58.966Z,0
2018-09-09T01:59:08.543Z,0
2018-09-09T02:00:18.377Z,0
2018-09-09T02:01:28.014Z,0
2018-09-09T02:02:37.885Z,0
2018-09-09T02:03:47.993Z,0
2018-09-09T02:04:57.863Z,0
2018-09-09T02:06:07.980Z,0
2018-09-09T02:07:17.867Z,0
2018-09-09T02:08:27.170Z,0
2018-09-09T02:09:36.794Z,0
2018-09-09T02:10:46.367Z,0
2018-09-09T02:11:55.937Z,0
2018-09-09T02:13:05.504Z,0
2018-09-09T02:14:15.346Z,0
2018-09-09T02:15:24.924Z,0
2018-09-09T02:16:34.771Z,0
2018-09-09T02:17:44.342Z,0
2018-09-09T02:18:53.882Z,0
2018-09-09T02:20:03.991Z,0
2018-09-09T02:21:13.835Z,0
2018-09-09T02:22:23.675Z,0
2018-09-09T02:23:33.243Z,0
2018-09-09T02:24:42.821Z,0
2018-09-09T02:25:52.895Z,0
2018-09-09T02:27:02.885Z,0
2018-09-09T02:28:12.753Z,0
2018-09-09T02:29:22.606Z,0
2018-09-09T02:30:32.181Z,0
2018-09-09T02:31:42.025Z,0
2018-09-09T02:32:51.059Z,0
2018-09-09T02:34:00.907Z,0
2018-09-09T02:35:11.017Z,0
2018-09-09T02:36:20.588Z,0
2018-09-09T02:37:30.724Z,0
2018-09-09T02:38:40.031Z,0
2018-09-09T02:39:49.603Z,0
2018-09-09T02:40:59.178Z,0
2018-09-09T02:42:08.777Z,0
2018-09-09T02:43:18.615Z,0
2018-09-09T02:44:28.184Z,0
2018-09-09T02:45:37.752Z,0
2018-09-09T02:46:47.630Z,0
2018-09-09T02:47:57.491Z,0
2018-09-09T02:49:07.338Z,0
2018-09-09T02:50:16.372Z,0
2018-09-09T02:51:25.955Z,0
2018-09-09T02:52:35.525Z,0
2018-09-09T02:53:45.391Z,0
2018-09-09T02:54:55.515Z,0
2018-09-09T02:56:05.417Z,0
2018-09-09T02:57:14.987Z,0
2018-09-09T02:58:24.824Z,0
2018-09-09T02:59:34.980Z,0
2018-09-09T03:00:44.823Z,0
2018-09-09T03:01:54.964Z,0
2018-09-09T03:03:05.076Z,0
2018-09-09T03:04:14.917Z,0
2018-09-09T03:05:24.758Z,0
2018-09-09T03:06:34.595Z,0
2018-09-09T03:07:44.439Z,0
2018-09-09T03:08:54.567Z,0
2018-09-09T03:10:04.429Z,0
2018-09-09T03:11:14.266Z,0
2018-09-09T03:12:24.105Z,0
2018-09-09T03:13:33.681Z,0
2018-09-09T03:14:43.522Z,0
2018-09-09T03:15:53.634Z,0
2018-09-09T03:17:03.513Z,0
2018-09-09T03:18:13.098Z,0
2018-09-09T03:19:22.673Z,0
2018-09-09T03:20:32.802Z,0
2018-09-09T03:21:42.660Z,0
2018-09-09T03:22:52.508Z,0
2018-09-09T03:24:02.357Z,0
2018-09-09T03:25:12.202Z,0
2018-09-09T03:26:21.787Z,0
2018-09-09T03:27:31.090Z,0
2018-09-09T03:28:41.511Z,0
2018-09-09T03:29:51.465Z,0
2018-09-09T03:31:01.594Z,0
2018-09-09T03:32:11.721Z,0
2018-09-09T03:33:21.838Z,0
2018-09-09T03:34:32.182Z,0
2018-09-09T03:35:41.784Z,0
2018-09-09T03:36:51.627Z,0
2018-09-09T03:38:01.202Z,0
2018-09-09T03:39:11.039Z,0
2018-09-09T03:40:21.164Z,0
2018-09-09T03:41:30.468Z,0
2018-09-09T03:42:40.588Z,0
2018-09-09T03:43:50.427Z,0
2018-09-09T03:45:00.302Z,0
2018-09-09T03:46:09.875Z,0
2018-09-09T03:47:19.174Z,0
2018-09-09T03:48:29.014Z,0
2018-09-09T03:49:39.124Z,0
2018-09-09T03:50:48.426Z,0
2018-09-09T03:51:58.041Z,0
2018-09-09T03:53:07.320Z,0
2018-09-09T03:54:17.168Z,0
2018-09-09T03:55:26.469Z,0
2018-09-09T03:56:36.410Z,0
2018-09-09T03:57:46.242Z,0
2018-09-09T03:58:56.084Z,0
2018-09-09T04:00:05.660Z,0
2018-09-09T04:01:15.503Z,0
2018-09-09T04:02:25.339Z,0
2018-09-09T04:03:35.448Z,0
2018-09-09T04:04:45.293Z,0
2018-09-09T04:05:54.595Z,0
2018-09-09T04:07:04.169Z,0
2018-09-09T04:08:13.741Z,0
2018-09-09T04:09:23.310Z,0
2018-09-09T04:10:32.947Z,0
2018-09-09T04:11:42.799Z,0
2018-09-09T04:12:52.908Z,0
2018-09-09T04:14:02.532Z,0
2018-09-09T04:15:12.647Z,0
2018-09-09T04:16:22.758Z,0
2018-09-09T04:17:32.071Z,0
2018-09-09T04:18:42.185Z,0
2018-09-09T04:19:51.482Z,4
2018-09-09T04:21:01.640Z,4
2018-09-09T04:22:11.479Z,0
2018-09-09T04:23:20.235Z,4
2018-09-09T04:24:29.804Z,8
2018-09-09T04:25:39.933Z,8
2018-09-09T04:26:50.047Z,8
2018-09-09T04:28:00.181Z,8
2018-09-09T04:29:10.023Z,8
2018-09-09T04:30:20.136Z,12
2018-09-09T04:31:29.747Z,16
2018-09-09T04:32:39.320Z,20
2018-09-09T04:33:49.426Z,20
2018-09-09T04:34:59.268Z,28
2018-09-09T04:36:08.570Z,28
2018-09-09T04:37:18.702Z,36
2018-09-09T04:38:28.004Z,36
2018-09-09T04:39:37.574Z,44
2018-09-09T04:40:47.692Z,48
2018-09-09T04:41:57.540Z,60
2018-09-09T04:43:06.838Z,64
2018-09-09T04:44:15.870Z,76
2018-09-09T04:45:25.717Z,88
2018-09-09T04:46:35.435Z,104
2018-09-09T04:47:45.281Z,116
2018-09-09T04:48:55.396Z,132
2018-09-09T04:50:05.242Z,140
2018-09-09T04:51:15.087Z,156
2018-09-09T04:52:24.936Z,164
2018-09-09T04:53:35.060Z,180
2018-09-09T04:54:44.639Z,192
2018-09-09T04:55:54.487Z,204
2018-09-09T04:57:04.594Z,220
2018-09-09T04:58:14.438Z,240
2018-09-09T04:59:23.800Z,252
2018-09-09T05:00:33.903Z,268
2018-09-09T05:01:44.012Z,276
2018-09-09T05:02:54.132Z,292
2018-09-09T05:04:03.987Z,304
2018-09-09T05:05:13.835Z,320
2018-09-09T05:06:23.403Z,340
2018-09-09T05:07:33.262Z,356
2018-09-09T05:08:43.373Z,376
2018-09-09T05:09:52.946Z,396
2018-09-09T05:11:02.794Z,420
2018-09-09T05:12:12.363Z,448
2018-09-09T05:13:22.211Z,472
2018-09-09T05:14:32.048Z,500
2018-09-09T05:15:41.894Z,528
2018-09-09T05:16:51.463Z,568
2018-09-09T05:18:01.308Z,608
2018-09-09T05:19:11.151Z,664
2018-09-09T05:20:20.993Z,712
2018-09-09T05:21:30.832Z,776
2018-09-09T05:22:40.670Z,844
2018-09-09T05:23:50.784Z,916
2018-09-09T05:25:00.683Z,960
2018-09-09T05:26:10.796Z,1000
2018-09-09T05:27:20.912Z,1040
2018-09-09T05:28:30.482Z,1072
2018-09-09T05:29:40.325Z,1112
2018-09-09T05:30:50.171Z,1168
2018-09-09T05:32:00.297Z,1220
2018-09-09T05:33:10.415Z,1272
2018-09-09T05:34:20.532Z,1320
2018-09-09T05:35:30.104Z,1360
2018-09-09T05:36:40.216Z,1384
2018-09-09T05:37:49.783Z,1408
2018-09-09T05:38:59.624Z,1416
2018-09-09T05:40:09.468Z,1416
2018-09-09T05:41:19.306Z,1432
2018-09-09T05:42:29.180Z,1444
2018-09-09T05:43:39.330Z,1444
2018-09-09T05:44:49.510Z,1452
2018-09-09T05:45:59.117Z,1480
2018-09-09T05:47:08.695Z,1488
2018-09-09T05:48:18.545Z,1468
2018-09-09T05:49:28.391Z,1484
2018-09-09T05:50:37.958Z,1532
2018-09-09T05:51:47.777Z,1600
2018-09-09T05:52:57.893Z,1720
2018-09-09T05:54:07.865Z,1856
2018-09-09T05:55:18.009Z,1948
2018-09-09T05:56:27.860Z,2000
2018-09-09T05:57:36.928Z,2060
2018-09-09T05:58:46.782Z,2148
2018-09-09T05:59:56.670Z,2232
2018-09-09T06:01:06.573Z,2312
2018-09-09T06:02:16.696Z,2392
2018-09-09T06:03:26.536Z,2468
2018-09-09T06:04:35.836Z,2500
2018-09-09T06:05:45.948Z,2484
2018-09-09T06:06:55.535Z,2384
2018-09-09T06:08:05.144Z,2252
2018-09-09T06:09:15.257Z,2164
2018-09-09T06:10:24.827Z,2076
2018-09-09T06:11:34.678Z,1956
2018-09-09T06:12:44.251Z,1816
2018-09-09T06:13:54.364Z,1676
2018-09-09T06:15:04.209Z,1600
2018-09-09T06:16:14.051Z,1584
2018-09-09T06:17:23.081Z,1584
2018-09-09T06:18:33.408Z,1540
2018-09-09T06:19:42.978Z,1524
2018-09-09T06:20:53.099Z,1512
2018-09-09T06:22:02.945Z,1496
2018-09-09T06:23:12.250Z,1544
2018-09-09T06:24:22.560Z,1596
2018-09-09T06:25:32.402Z,1704
2018-09-09T06:26:41.974Z,1836
2018-09-09T06:27:51.274Z,1968
2018-09-09T06:29:00.632Z,2124
2018-09-09T06:30:10.747Z,2240
2018-09-09T06:31:20.578Z,2296
2018-09-09T06:32:30.688Z,2256
2018-09-09T06:33:41.093Z,2252
2018-09-09T06:34:51.366Z,2244
2018-09-09T06:36:00.940Z,2236
2018-09-09T06:37:10.265Z,2244
2018-09-09T06:38:19.885Z,2252
2018-09-09T06:39:29.193Z,2272
2018-09-09T06:40:39.037Z,2324
2018-09-09T06:41:49.159Z,2380
2018-09-09T06:42:58.735Z,2396
2018-09-09T06:44:08.584Z,2424
2018-09-09T06:45:18.461Z,2444
2018-09-09T06:46:28.740Z,2492
2018-09-09T06:47:39.052Z,2496
2018-09-09T06:48:48.906Z,2532
2018-09-09T06:49:57.936Z,2548
2018-09-09T06:51:07.246Z,2676
2018-09-09T06:52:17.489Z,2772
2018-09-09T06:53:27.603Z,2792
2018-09-09T06:54:37.172Z,2780
2018-09-09T06:55:47.019Z,2828
2018-09-09T06:56:56.322Z,2804
2018-09-09T06:58:05.944Z,2852
2018-09-09T06:59:15.797Z,2868
2018-09-09T07:00:25.639Z,2868
2018-09-09T07:01:34.944Z,2832
2018-09-09T07:02:44.514Z,2768
2018-09-09T07:03:54.142Z,2708
2018-09-09T07:05:04.259Z,2644
2018-09-09T07:06:14.396Z,2588
2018-09-09T07:07:23.424Z,2564
2018-09-09T07:08:33.267Z,2536
2018-09-09T07:09:43.104Z,2444
2018-09-09T07:10:53.319Z,2416
2018-09-09T07:12:04.130Z,2420
2018-09-09T07:13:13.971Z,2436
2018-09-09T07:14:23.277Z,2480
2018-09-09T07:15:33.182Z,2396
2018-09-09T07:16:43.026Z,2396
2018-09-09T07:17:53.133Z,2548
2018-09-09T07:19:03.098Z,2660
2018-09-09T07:20:13.038Z,2716
2018-09-09T07:21:22.880Z,2692
2018-09-09T07:22:32.537Z,2672
2018-09-09T07:23:42.194Z,2656
2018-09-09T07:24:52.313Z,2684
2018-09-09T07:26:01.888Z,2720
2018-09-09T07:27:11.190Z,2748
2018-09-09T07:28:21.335Z,2784
2018-09-09T07:29:31.245Z,2764
2018-09-09T07:30:40.816Z,2756
2018-09-09T07:31:50.387Z,2788
2018-09-09T07:32:59.962Z,2944
2018-09-09T07:34:10.237Z,3200
2018-09-09T07:35:19.827Z,3364
2018-09-09T07:36:29.401Z,3412
2018-09-09T07:37:39.049Z,3496
2018-09-09T07:38:48.625Z,3636
2018-09-09T07:39:58.501Z,3668
2018-09-09T07:41:08.098Z,3628
2018-09-09T07:42:17.936Z,3588
2018-09-09T07:43:27.769Z,3564
2018-09-09T07:44:37.869Z,3700
2018-09-09T07:45:47.175Z,3956
2018-09-09T07:46:57.017Z,4248
2018-09-09T07:48:06.884Z,4624
2018-09-09T07:49:16.728Z,4988
2018-09-09T07:50:26.314Z,5264
2018-09-09T07:51:36.175Z,5476
2018-09-09T07:52:45.744Z,5684
2018-09-09T07:53:55.692Z,5936
2018-09-09T07:55:05.269Z,6172
2018-09-09T07:56:14.867Z,6276
2018-09-09T07:57:24.475Z,6336
2018-09-09T07:58:34.582Z,6428
2018-09-09T07:59:43.880Z,6396
2018-09-09T08:00:53.993Z,6428
2018-09-09T08:02:03.843Z,6324
2018-09-09T08:03:13.411Z,6268
2018-09-09T08:04:23.526Z,6232
2018-09-09T08:05:33.364Z,6160
2018-09-09T08:06:43.207Z,6068
2018-09-09T08:07:53.043Z,5932
2018-09-09T08:09:02.892Z,5804
2018-09-09T08:10:12.734Z,5668
2018-09-09T08:11:22.856Z,5348
2018-09-09T08:12:32.982Z,4944
2018-09-09T08:13:42.559Z,4528
2018-09-09T08:14:52.671Z,4168
2018-09-09T08:16:02.251Z,3836
2018-09-09T08:17:11.828Z,3576
2018-09-09T08:18:21.305Z,3368
2018-09-09T08:19:30.977Z,3248
2018-09-09T08:20:40.560Z,3180
2018-09-09T08:21:49.867Z,3144
2018-09-09T08:22:59.171Z,3180
2018-09-09T08:24:08.745Z,3260
2018-09-09T08:25:18.871Z,3384
2018-09-09T08:26:28.445Z,3548
2018-09-09T08:27:38.027Z,3736
2018-09-09T08:28:48.172Z,3904
2018-09-09T08:29:57.472Z,4068
2018-09-09T08:31:07.324Z,4368
2018-09-09T08:32:17.435Z,4708
2018-09-09T08:33:27.547Z,5032
2018-09-09T08:34:37.417Z,5280
2018-09-09T08:35:47.281Z,5412
2018-09-09T08:36:57.115Z,5468
2018-09-09T08:38:06.688Z,5556
2018-09-09T08:39:16.270Z,5768
2018-09-09T08:40:25.580Z,6084
2018-09-09T08:41:35.427Z,6588
2018-09-09T08:42:45.544Z,7244
2018-09-09T08:43:55.391Z,8044
2018-09-09T08:45:05.490Z,8736
2018-09-09T08:46:15.382Z,9224
2018-09-09T08:47:25.501Z,9344
2018-09-09T08:48:35.346Z,8988
2018-09-09T08:49:44.918Z,8412
2018-09-09T08:50:54.755Z,7740
2018-09-09T08:52:05.330Z,7096
2018-09-09T08:53:15.344Z,6464
2018-09-09T08:54:24.644Z,5984
2018-09-09T08:55:34.835Z,5816
2018-09-09T08:56:44.685Z,5836
2018-09-09T08:57:54.798Z,6128
2018-09-09T08:59:04.368Z,6096
2018-09-09T09:00:13.687Z,5968
2018-09-09T09:01:22.977Z,5660
2018-09-09T09:02:32.549Z,5112
2018-09-09T09:03:41.910Z,4464
2018-09-09T09:04:50.940Z,3792
2018-09-09T09:06:01.259Z,3316
2018-09-09T09:07:10.559Z,3100
2018-09-09T09:08:20.786Z,3028
2018-09-09T09:09:30.360Z,2964
2018-09-09T09:10:40.511Z,2916
2018-09-09T09:11:50.087Z,2832
2018-09-09T09:12:59.658Z,2788
2018-09-09T09:14:09.229Z,2804
2018-09-09T09:15:18.583Z,2848
2018-09-09T09:16:28.160Z,2940
2018-09-09T09:17:37.744Z,3112
2018-09-09T09:18:47.713Z,3392
2018-09-09T09:19:57.845Z,3720
2018-09-09T09:21:07.430Z,4164
2018-09-09T09:22:17.575Z,5032
2018-09-09T09:23:27.711Z,5876
2018-09-09T09:24:37.891Z,6048
2018-09-09T09:25:47.737Z,6336
2018-09-09T09:26:57.040Z,6312
2018-09-09T09:28:06.614Z,6400
2018-09-09T09:29:16.727Z,6872
2018-09-09T09:30:26.305Z,6956
2018-09-09T09:31:36.425Z,6480
2018-09-09T09:32:46.245Z,6084
2018-09-09T09:33:56.359Z,5792
2018-09-09T09:35:06.677Z,6120
2018-09-09T09:36:16.830Z,7464
2018-09-09T09:37:26.402Z,9160
2018-09-09T09:38:36.003Z,10240
2018-09-09T09:39:45.588Z,10748
2018-09-09T09:40:55.437Z,10660
2018-09-09T09:42:05.301Z,10636
2018-09-09T09:43:14.880Z,10612
2018-09-09T09:44:25.002Z,10124
2018-09-09T09:45:35.112Z,9584
2018-09-09T09:46:44.966Z,9244
2018-09-09T09:47:54.814Z,8884
2018-09-09T09:49:04.661Z,8652
2018-09-09T09:50:14.544Z,7936
2018-09-09T09:51:24.386Z,7272
2018-09-09T09:52:34.226Z,6856
2018-09-09T09:53:44.612Z,6000
2018-09-09T09:54:54.186Z,4756
2018-09-09T09:56:03.492Z,4260
2018-09-09T09:57:13.605Z,3692
2018-09-09T09:58:23.174Z,3236
2018-09-09T09:59:33.022Z,3028
2018-09-09T10:00:42.872Z,2900
2018-09-09T10:01:52.443Z,2844
2018-09-09T10:03:02.290Z,2840
2018-09-09T10:04:11.596Z,2832
2018-09-09T10:05:21.110Z,2840
2018-09-09T10:06:30.691Z,2848
2018-09-09T10:07:40.264Z,2820
2018-09-09T10:08:50.409Z,2820
2018-09-09T10:10:00.589Z,2816
2018-09-09T10:11:10.435Z,2852
2018-09-09T10:12:20.280Z,2900
2018-09-09T10:13:29.852Z,2932
2018-09-09T10:14:39.985Z,2960
2018-09-09T10:15:49.561Z,2964
2018-09-09T10:16:59.660Z,2976
2018-09-09T10:18:09.442Z,2980
2018-09-09T10:19:19.014Z,3004
2018-09-09T10:20:28.593Z,3056
2018-09-09T10:21:38.440Z,3064
2018-09-09T10:22:48.016Z,3052
2018-09-09T10:23:58.274Z,3092
2018-09-09T10:25:07.847Z,3148
2018-09-09T10:26:17.678Z,3180
2018-09-09T10:27:27.794Z,3192
2018-09-09T10:28:37.370Z,3200
2018-09-09T10:29:46.944Z,3212
2018-09-09T10:30:56.294Z,3196
2018-09-09T10:32:06.409Z,3172
2018-09-09T10:33:15.716Z,3200
2018-09-09T10:34:25.555Z,3228
2018-09-09T10:35:35.124Z,3292
2018-09-09T10:36:44.698Z,3324
2018-09-09T10:37:53.730Z,3296
2018-09-09T10:39:03.589Z,3300
2018-09-09T10:40:12.945Z,3300
2018-09-09T10:41:22.520Z,3388
2018-09-09T10:42:32.423Z,3468
2018-09-09T10:43:42.265Z,3516
2018-09-09T10:44:52.107Z,3524
2018-09-09T10:46:02.051Z,3448
2018-09-09T10:47:12.408Z,3364
2018-09-09T10:48:22.670Z,3348
2018-09-09T10:49:32.785Z,3360
2018-09-09T10:50:42.901Z,3360
2018-09-09T10:51:52.479Z,3324
2018-09-09T10:53:02.145Z,3308
2018-09-09T10:54:12.306Z,3364
2018-09-09T10:55:21.880Z,3484
2018-09-09T10:56:31.994Z,3616
2018-09-09T10:57:41.578Z,3688
2018-09-09T10:58:52.044Z,3612
2018-09-09T11:00:01.140Z,3596
2018-09-09T11:01:11.496Z,3556
2018-09-09T11:02:21.342Z,3508
2018-09-09T11:03:30.644Z,3496
2018-09-09T11:04:40.218Z,3520
2018-09-09T11:05:49.521Z,3528
2018-09-09T11:06:59.504Z,3540
2018-09-09T11:08:08.602Z,3512
2018-09-09T11:09:17.923Z,3508
2018-09-09T11:10:28.039Z,3468
2018-09-09T11:11:37.616Z,3472
2018-09-09T11:12:48.110Z,3568
2018-09-09T11:13:57.152Z,3664
2018-09-09T11:15:07.003Z,3712
2018-09-09T11:16:16.839Z,3728
2018-09-09T11:17:26.681Z,3764
2018-09-09T11:18:36.258Z,3848
2018-09-09T11:19:46.374Z,4024
2018-09-09T11:20:56.227Z,4236
2018-09-09T11:22:05.798Z,4352
2018-09-09T11:23:15.428Z,4300
2018-09-09T11:24:24.790Z,4380
2018-09-09T11:25:34.766Z,4348
2018-09-09T11:26:44.608Z,4452
2018-09-09T11:27:54.192Z,4688
2018-09-09T11:29:03.807Z,4888
2018-09-09T11:30:13.923Z,4852
2018-09-09T11:31:23.800Z,4844
2018-09-09T11:32:33.656Z,4920
2018-09-09T11:33:43.499Z,4932
2018-09-09T11:34:53.608Z,4876
2018-09-09T11:36:03.193Z,5064
2018-09-09T11:37:13.056Z,5160
2018-09-09T11:38:22.627Z,5824
2018-09-09T11:39:32.200Z,6304
2018-09-09T11:40:41.689Z,6252
2018-09-09T11:41:51.113Z,6088
2018-09-09T11:43:00.969Z,5988
2018-09-09T11:44:10.814Z,6016
2018-09-09T11:45:20.668Z,6928
2018-09-09T11:46:30.784Z,8064
2018-09-09T11:47:40.638Z,8776
2018-09-09T11:48:50.483Z,9244
2018-09-09T11:50:00.070Z,10124
2018-09-09T11:51:09.927Z,12664
2018-09-09T11:52:19.229Z,12552
2018-09-09T11:53:29.076Z,13668
2018-09-09T11:54:38.919Z,43328
2018-09-09T11:55:48.494Z,57728
2018-09-09T11:56:58.349Z,57248
2018-09-09T11:58:08.200Z,55360
2018-09-09T11:59:17.243Z,55136
2018-09-09T12:00:27.086Z,6688
2018-09-09T12:01:36.155Z,16928
2018-09-09T12:02:45.997Z,14144
2018-09-09T12:03:56.120Z,10372
2018-09-09T12:05:06.236Z,11168
2018-09-09T12:06:15.845Z,7876
2018-09-09T12:07:26.118Z,7792
2018-09-09T12:08:35.705Z,12912
2018-09-09T12:09:45.827Z,18656
2018-09-09T12:10:55.967Z,29344
2018-09-09T12:12:05.277Z,38304
2018-09-09T12:13:14.860Z,19968
2018-09-09T12:14:24.445Z,14388
2018-09-09T12:15:34.029Z,14716
2018-09-09T12:16:43.891Z,12012
2018-09-09T12:17:53.748Z,15240
2018-09-09T12:19:03.060Z,10364
2018-09-09T12:20:13.178Z,13284
2018-09-09T12:21:22.759Z,11824
2018-09-09T12:22:32.065Z,14252
2018-09-09T12:23:42.149Z,13184
2018-09-09T12:24:51.725Z,11792
2018-09-09T12:26:01.847Z,11820
2018-09-09T12:27:11.423Z,11576
2018-09-09T12:28:20.465Z,13724
2018-09-09T12:29:30.310Z,14776
2018-09-09T12:30:40.430Z,14620
2018-09-09T12:31:50.553Z,14996
2018-09-09T12:33:00.128Z,13972
2018-09-09T12:34:09.760Z,14892
2018-09-09T12:35:19.876Z,16180
2018-09-09T12:36:29.732Z,16236
2018-09-09T12:37:39.970Z,16864
2018-09-09T12:38:49.586Z,16928
2018-09-09T12:39:58.892Z,16388
2018-09-09T12:41:08.741Z,15912
2018-09-09T12:42:18.856Z,15276
2018-09-09T12:43:28.700Z,14508
2018-09-09T12:44:38.284Z,13744
2018-09-09T12:45:47.872Z,13844
2018-09-09T12:46:58.005Z,14336
2018-09-09T12:48:07.639Z,14656
2018-09-09T12:49:17.276Z,14944
2018-09-09T12:50:26.850Z,15416
2018-09-09T12:51:36.708Z,15604
2018-09-09T12:52:46.838Z,15672
2018-09-09T12:53:56.954Z,16448
2018-09-09T12:55:06.589Z,16736
2018-09-09T12:56:16.710Z,16576
2018-09-09T12:57:26.556Z,16768
2018-09-09T12:58:35.593Z,17440
2018-09-09T12:59:44.905Z,18496
2018-09-09T13:00:54.489Z,19328
2018-09-09T13:02:04.342Z,19968
2018-09-09T13:03:13.967Z,20320
2018-09-09T13:04:23.546Z,20736
2018-09-09T13:05:33.674Z,20992
2018-09-09T13:06:43.258Z,21088
2018-09-09T13:07:52.835Z,21024
2018-09-09T13:09:02.716Z,20960
2018-09-09T13:10:13.060Z,21024
2018-09-09T13:11:22.639Z,21632
2018-09-09T13:12:32.694Z,23392
2018-09-09T13:13:42.536Z,25760
2018-09-09T13:14:52.654Z,27040
2018-09-09T13:16:02.227Z,28224
2018-09-09T13:17:12.348Z,26528
2018-09-09T13:18:22.468Z,25792
2018-09-09T13:19:32.050Z,25472
2018-09-09T13:20:41.632Z,25344
2018-09-09T13:21:51.743Z,24864
2018-09-09T13:23:01.323Z,24448
2018-09-09T13:24:10.925Z,24448
2018-09-09T13:25:21.047Z,24256
2018-09-09T13:26:30.939Z,24608
2018-09-09T13:27:40.796Z,24960
2018-09-09T13:28:50.661Z,24864
2018-09-09T13:30:00.813Z,24992
2018-09-09T13:31:10.950Z,25280
2018-09-09T13:32:20.527Z,25632
2018-09-09T13:33:30.392Z,25984
2018-09-09T13:34:40.240Z,25760
2018-09-09T13:35:49.824Z,25312
2018-09-09T13:36:59.941Z,24864
2018-09-09T13:38:10.060Z,24480
2018-09-09T13:39:19.904Z,24448
2018-09-09T13:40:29.750Z,28320
2018-09-09T13:41:39.876Z,27616
2018-09-09T13:42:49.789Z,35072
2018-09-09T13:43:59.907Z,31744
2018-09-09T13:45:09.760Z,28768
2018-09-09T13:46:19.615Z,30592
2018-09-09T13:47:29.463Z,28320
2018-09-09T13:48:39.734Z,23104
2018-09-09T13:49:49.307Z,23072
2018-09-09T13:50:58.885Z,22304
2018-09-09T13:52:08.471Z,23392
2018-09-09T13:53:18.110Z,24704
2018-09-09T13:54:27.960Z,20640
2018-09-09T13:55:37.820Z,21760
2018-09-09T13:56:47.678Z,23488
2018-09-09T13:57:56.721Z,23520
2018-09-09T13:59:06.572Z,26432
2018-09-09T14:00:16.429Z,24000
2018-09-09T14:01:26.283Z,26336
2018-09-09T14:02:35.862Z,26560
2018-09-09T14:03:45.222Z,26240
2018-09-09T14:04:55.439Z,26560
2018-09-09T14:06:05.592Z,26016
2018-09-09T14:07:15.447Z,27744
2018-09-09T14:08:25.300Z,20192
2018-09-09T14:09:35.676Z,17088
2018-09-09T14:10:45.756Z,16960
2018-09-09T14:11:55.877Z,22816
2018-09-09T14:13:05.455Z,36960
2018-09-09T14:14:15.033Z,15840
2018-09-09T14:15:25.051Z,15380
2018-09-09T14:16:34.677Z,33536
2018-09-09T14:17:44.532Z,78304
2018-09-09T14:18:54.106Z,88992
2018-09-09T14:20:03.717Z,93088
2018-09-09T14:21:12.778Z,92992
2018-09-09T14:22:23.074Z,85888
2018-09-09T14:23:33.052Z,83552
2018-09-09T14:24:42.899Z,81504
2018-09-09T14:25:52.488Z,83968
2018-09-09T14:27:02.080Z,82624
2018-09-09T14:28:11.944Z,85024
2018-09-09T14:29:21.803Z,85632
2018-09-09T14:30:32.160Z,87328
2018-09-09T14:31:42.293Z,87520
2018-09-09T14:32:52.148Z,85312
2018-09-09T14:34:02.016Z,86816
2018-09-09T14:35:11.610Z,87584
2018-09-09T14:36:21.476Z,85536
2018-09-09T14:37:31.639Z,84608
2018-09-09T14:38:41.495Z,84544
2018-09-09T14:39:51.085Z,85344
2018-09-09T14:41:00.677Z,86368
2018-09-09T14:42:10.805Z,87904
2018-09-09T14:43:20.929Z,83040
2018-09-09T14:44:30.553Z,68064
2018-09-09T14:45:40.407Z,48096
2018-09-09T14:46:50.534Z,18880
2018-09-09T14:48:00.390Z,20288
2018-09-09T14:49:10.513Z,51168
2018-09-09T14:50:20.387Z,91872
2018-09-09T14:51:29.973Z,44160
2018-09-09T14:52:39.833Z,26368
2018-09-09T14:53:49.691Z,18016
2018-09-09T14:54:59.556Z,18816
2018-09-09T14:56:08.601Z,21344
2018-09-09T14:57:18.717Z,14660
2018-09-09T14:58:28.297Z,10720
2018-09-09T14:59:37.619Z,8752
2018-09-09T15:00:47.474Z,7436
2018-09-09T15:01:57.328Z,5776
2018-09-09T15:03:07.182Z,5296
2018-09-09T15:04:17.042Z,6092
2018-09-09T15:05:27.164Z,12756
2018-09-09T15:06:36.744Z,13976
2018-09-09T15:07:46.329Z,7040
2018-09-09T15:08:56.181Z,6504
2018-09-09T15:10:06.050Z,6648
2018-09-09T15:11:15.636Z,12344
2018-09-09T15:12:25.523Z,61184
2018-09-09T15:13:35.373Z,27776
2018-09-09T15:14:44.953Z,66688
2018-09-09T15:15:55.074Z,69312
2018-09-09T15:17:04.964Z,82176
2018-09-09T15:18:15.090Z,81472
2018-09-09T15:19:25.221Z,79776
2018-09-09T15:20:34.825Z,78880
2018-09-09T15:21:45.009Z,77472
2018-09-09T15:22:54.589Z,50272
2018-09-09T15:24:04.178Z,23872
2018-09-09T15:25:14.330Z,19616
2018-09-09T15:26:24.186Z,29504
2018-09-09T15:27:34.053Z,23872
2018-09-09T15:28:44.369Z,60640
2018-09-09T15:29:54.002Z,78528
2018-09-09T15:31:03.599Z,79456
2018-09-09T15:32:12.918Z,48000
2018-09-09T15:33:22.505Z,63872
2018-09-09T15:34:31.937Z,80736
2018-09-09T15:35:41.801Z,13996
2018-09-09T15:36:51.943Z,18112
2018-09-09T15:38:01.534Z,13612
2018-09-09T15:39:10.847Z,11788
2018-09-09T15:40:20.446Z,10396
2018-09-09T15:41:30.303Z,9728
2018-09-09T15:42:39.668Z,9276
2018-09-09T15:43:49.523Z,8916
2018-09-09T15:44:58.572Z,8688
2018-09-09T15:46:07.623Z,8356
2018-09-09T15:47:17.209Z,8160
2018-09-09T15:48:26.519Z,8120
2018-09-09T15:49:36.105Z,7972
2018-09-09T15:50:45.689Z,7904